createdAt,value
2023-04-01T00:00:24.641Z,14.61
2023-04-01T00:05:47.468Z,14.61
2023-04-01T00:10:50.176Z,14.67
2023-04-01T00:15:53.543Z,14.68
2023-04-01T00:20:56.100Z,14.73
2023-04-01T00:26:01.783Z,14.65
2023-04-01T00:31:07.276Z,14.70
2023-04-01T00:36:15.722Z,14.81
2023-04-01T00:41:20.333Z,15.09
2023-04-01T00:46:22.893Z,15.37
2023-04-01T00:51:29.975Z,14.85
2023-04-01T00:56:37.738Z,13.26
2023-04-01T01:01:40.719Z,12.18
2023-04-01T01:07:05.479Z,12.12
2023-04-01T01:12:20.770Z,13.50
2023-04-01T01:17:51.908Z,14.10
2023-04-01T01:23:00.644Z,14.41
2023-04-01T01:28:24.981Z,14.55
2023-04-01T01:33:43.307Z,14.70
2023-04-01T01:38:48.418Z,14.86
2023-04-01T01:43:54.510Z,14.99
2023-04-01T01:48:58.811Z,15.15
2023-04-01T01:54:01.290Z,15.10
2023-04-01T01:59:09.587Z,14.77
2023-04-01T02:04:15.773Z,14.67
2023-04-01T02:09:19.721Z,14.64
2023-04-01T02:14:26.094Z,14.54
2023-04-01T02:19:34.749Z,14.55
2023-04-01T02:24:39.739Z,14.75
2023-04-01T02:29:42.346Z,14.90
2023-04-01T02:34:45.456Z,14.99
2023-04-01T02:39:48.000Z,15.07
2023-04-01T02:44:50.525Z,15.13
2023-04-01T02:49:58.826Z,14.63
2023-04-01T02:55:01.623Z,13.02
2023-04-01T03:00:04.656Z,12.48
2023-04-01T03:05:08.102Z,12.78
2023-04-01T03:10:11.236Z,12.61
2023-04-01T03:15:15.618Z,12.49
2023-04-01T03:20:18.555Z,12.82
2023-04-01T03:25:21.167Z,13.75
2023-04-01T03:30:24.237Z,14.28
2023-04-01T03:35:27.350Z,14.61
2023-04-01T03:40:29.866Z,14.78
2023-04-01T03:45:32.486Z,14.75
2023-04-01T03:50:35.738Z,14.84
2023-04-01T03:55:39.194Z,14.81
2023-04-01T04:00:41.724Z,14.50
2023-04-01T04:05:48.862Z,14.53
2023-04-01T04:10:57.738Z,14.43
2023-04-01T04:16:00.358Z,14.30
2023-04-01T04:21:04.133Z,14.28
2023-04-01T04:26:08.751Z,14.16
2023-04-01T04:31:11.488Z,14.03
2023-04-01T04:36:14.702Z,14.04
2023-04-01T04:41:20.340Z,13.93
2023-04-01T04:46:23.747Z,13.87
2023-04-01T04:51:26.842Z,13.93
2023-04-01T04:56:29.443Z,13.88
2023-04-01T05:01:32.044Z,13.89
2023-04-01T05:06:34.666Z,13.82
2023-04-01T05:11:37.463Z,13.76
2023-04-01T05:16:40.020Z,13.76
2023-04-01T05:21:42.577Z,13.71
2023-04-01T05:26:45.337Z,13.53
2023-04-01T05:31:47.830Z,13.59
2023-04-01T05:36:50.284Z,13.92
2023-04-01T05:41:52.885Z,13.90
2023-04-01T05:46:55.625Z,13.91
2023-04-01T05:51:58.392Z,13.86
2023-04-01T05:57:03.049Z,13.93
2023-04-01T06:02:05.666Z,13.97
2023-04-01T06:07:16.901Z,13.85
2023-04-01T06:12:57.519Z,13.88
2023-04-01T06:18:31.990Z,13.95
2023-04-01T06:24:07.546Z,14.09
2023-04-01T06:29:29.136Z,14.16
2023-04-01T06:34:50.793Z,14.16
2023-04-01T06:40:09.281Z,14.16
2023-04-01T06:45:20.009Z,14.19
2023-04-01T06:50:42.648Z,14.28
2023-04-01T06:55:53.630Z,14.30
2023-04-01T07:01:01.235Z,14.28
2023-04-01T07:06:06.514Z,14.41
2023-04-01T07:11:31.534Z,13.87
2023-04-01T07:16:40.650Z,12.10
2023-04-01T07:21:57.840Z,10.94
2023-04-01T07:27:00.480Z,10.97
2023-04-01T07:32:22.349Z,12.21
2023-04-01T07:37:46.271Z,13.13
2023-04-01T07:43:21.115Z,13.70
2023-04-01T07:48:55.758Z,13.92
2023-04-01T07:54:14.022Z,13.74
2023-04-01T07:59:40.970Z,13.51
2023-04-01T08:05:15.318Z,13.89
2023-04-01T08:10:24.619Z,13.99
2023-04-01T08:15:43.450Z,14.21
2023-04-01T08:20:51.925Z,14.35
2023-04-01T08:26:14.796Z,13.99
2023-04-01T08:31:36.981Z,12.56
2023-04-01T08:36:45.290Z,11.47
2023-04-01T08:41:59.648Z,11.55
2023-04-01T08:47:34.034Z,13.10
2023-04-01T08:53:09.679Z,13.85
2023-04-01T08:58:20.915Z,14.29
2023-04-01T09:03:42.330Z,14.44
2023-04-01T09:09:03.777Z,13.06
2023-04-01T09:14:22.320Z,12.21
2023-04-01T09:19:30.786Z,12.94
2023-04-01T09:24:47.715Z,14.13
2023-04-01T09:30:09.670Z,14.67
2023-04-01T09:35:25.456Z,13.66
2023-04-01T09:40:38.423Z,14.01
2023-04-01T09:45:48.534Z,14.72
2023-04-01T09:51:17.764Z,14.36
2023-04-01T09:56:28.308Z,13.19
2023-04-01T10:01:46.882Z,13.99
2023-04-01T10:07:32.838Z,14.54
2023-04-01T10:12:41.346Z,14.10
2023-04-01T10:18:06.316Z,12.67
2023-04-01T10:23:40.888Z,11.75
2023-04-01T10:29:19.690Z,12.47
2023-04-01T10:34:41.062Z,13.69
2023-04-01T10:40:15.496Z,14.17
2023-04-01T10:45:37.476Z,14.63
2023-04-01T10:50:56.168Z,13.66
2023-04-01T10:56:14.557Z,12.30
2023-04-01T11:01:20.804Z,12.23
2023-04-01T11:06:57.292Z,13.46
2023-04-01T11:12:16.077Z,13.96
2023-04-01T11:17:18.571Z,14.46
2023-04-01T11:22:27.915Z,14.30
2023-04-01T11:28:04.299Z,12.99
2023-04-01T11:33:21.872Z,12.20
2023-04-01T11:38:43.100Z,12.27
2023-04-01T11:44:18.366Z,12.99
2023-04-01T11:49:48.767Z,13.27
2023-04-01T11:55:18.963Z,14.13
2023-04-01T12:00:33.972Z,14.23
2023-04-01T12:05:59.622Z,14.37
2023-04-01T12:11:16.785Z,14.31
2023-04-01T12:16:25.694Z,12.84
2023-04-01T12:21:49.850Z,12.11
2023-04-01T12:27:08.350Z,13.08
2023-04-01T12:32:29.595Z,13.37
2023-04-01T12:38:04.163Z,13.26
2023-04-01T12:43:36.858Z,13.05
2023-04-01T12:48:55.638Z,12.94
2023-04-01T12:54:20.510Z,12.92
2023-04-01T12:59:55.607Z,13.72
2023-04-01T13:05:30.456Z,13.69
2023-04-01T13:10:43.080Z,12.14
2023-04-01T13:16:00.933Z,12.69
2023-04-01T13:21:10.608Z,13.82
2023-04-01T13:26:51.295Z,13.73
2023-04-01T13:32:15.531Z,12.11
2023-04-01T13:37:43.054Z,11.25
2023-04-01T13:42:54.865Z,12.40
2023-04-01T13:48:16.593Z,13.25
2023-04-01T13:53:35.511Z,13.48
2023-04-01T13:58:49.968Z,12.62
2023-04-01T14:03:57.266Z,10.93
2023-04-01T14:09:16.085Z,10.72
2023-04-01T14:14:37.989Z,11.94
2023-04-01T14:20:14.719Z,12.25
2023-04-01T14:25:37.053Z,12.29
2023-04-01T14:30:59.235Z,12.71
2023-04-01T14:36:39.696Z,12.85
2023-04-01T14:42:00.430Z,13.09
2023-04-01T14:47:44.196Z,13.03
2023-04-01T14:53:07.502Z,12.84
2023-04-01T14:58:13.766Z,12.82
2023-04-01T15:03:28.099Z,12.54
2023-04-01T15:08:39.210Z,12.33
2023-04-01T15:14:14.063Z,12.14
2023-04-01T15:19:43.821Z,12.22
2023-04-01T15:25:13.019Z,12.11
2023-04-01T15:30:38.338Z,11.89
2023-04-01T15:36:16.762Z,11.94
2023-04-01T15:41:37.026Z,12.10
2023-04-01T15:46:47.749Z,12.05
2023-04-01T15:52:04.917Z,12.25
2023-04-01T15:57:31.242Z,12.20
2023-04-01T16:03:10.336Z,12.32
2023-04-01T16:08:36.343Z,12.21
2023-04-01T16:14:11.000Z,12.20
2023-04-01T16:19:26.362Z,12.24
2023-04-01T16:24:47.898Z,12.33
2023-04-01T16:29:56.341Z,12.32
2023-04-01T16:35:15.671Z,12.24
2023-04-01T16:40:27.067Z,11.59
2023-04-01T16:45:29.602Z,9.68
2023-04-01T16:50:40.857Z,9.14
2023-04-01T16:56:06.179Z,10.35
2023-04-01T17:01:17.177Z,11.01
2023-04-01T17:06:44.269Z,11.30
2023-04-01T17:12:06.066Z,11.21
2023-04-01T17:17:41.762Z,11.39
2023-04-01T17:23:02.745Z,11.63
2023-04-01T17:28:11.630Z,11.62
2023-04-01T17:33:43.191Z,11.66
2023-04-01T17:39:07.833Z,11.71
2023-04-01T17:44:26.295Z,11.66
2023-04-01T17:49:35.026Z,11.65
2023-04-01T17:54:59.383Z,11.68
2023-04-01T18:00:17.907Z,11.60
2023-04-01T18:05:31.700Z,10.72
2023-04-01T18:10:52.613Z,8.97
2023-04-01T18:16:28.062Z,8.83
2023-04-01T18:21:51.433Z,10.24
2023-04-01T18:27:10.017Z,10.66
2023-04-01T18:32:25.390Z,10.99
2023-04-01T18:37:42.538Z,11.21
2023-04-01T18:42:56.692Z,11.41
2023-04-01T18:48:32.891Z,11.66
2023-04-01T18:53:35.569Z,10.23
2023-04-01T18:58:59.979Z,8.85
2023-04-01T19:04:39.683Z,9.69
2023-04-01T19:09:48.634Z,10.38
2023-04-01T19:15:00.759Z,10.69
2023-04-01T19:20:03.412Z,10.75
2023-04-01T19:25:34.309Z,10.68
2023-04-01T19:31:00.700Z,10.63
2023-04-01T19:36:10.962Z,10.78
2023-04-01T19:41:36.318Z,10.94
2023-04-01T19:47:10.308Z,11.06
2023-04-01T19:52:20.822Z,10.44
2023-04-01T19:57:33.707Z,8.59
2023-04-01T20:03:01.082Z,7.33
2023-04-01T20:08:19.645Z,7.67
2023-04-01T20:13:38.141Z,9.22
2023-04-01T20:18:46.587Z,9.90
2023-04-01T20:23:59.165Z,10.12
2023-04-01T20:29:28.657Z,10.42
2023-04-01T20:34:31.865Z,10.50
2023-04-01T20:39:46.887Z,10.49
2023-04-01T20:45:08.466Z,10.46
2023-04-01T20:50:27.267Z,8.88
2023-04-01T20:55:52.096Z,7.47
2023-04-01T21:01:03.964Z,7.16
2023-04-01T21:06:33.954Z,8.39
2023-04-01T21:12:09.650Z,9.19
2023-04-01T21:17:46.477Z,9.77
2023-04-01T21:22:56.230Z,10.25
2023-04-01T21:28:14.680Z,10.47
2023-04-01T21:33:36.241Z,9.20
2023-04-01T21:39:01.265Z,7.62
2023-04-01T21:44:36.025Z,7.13
2023-04-01T21:49:48.544Z,8.39
2023-04-01T21:55:23.448Z,9.25
2023-04-01T22:01:02.688Z,9.50
2023-04-01T22:06:46.227Z,9.46
2023-04-01T22:12:15.777Z,9.46
2023-04-01T22:17:55.771Z,9.39
2023-04-01T22:23:18.488Z,9.58
2023-04-01T22:28:52.218Z,9.74
2023-04-01T22:34:26.129Z,9.76
2023-04-01T22:39:49.884Z,10.12
2023-04-01T22:45:09.452Z,10.23
2023-04-01T22:50:28.879Z,8.65
2023-04-01T22:55:39.112Z,6.92
2023-04-01T23:01:01.018Z,6.70
2023-04-01T23:06:05.772Z,8.24
2023-04-01T23:11:16.265Z,9.08
2023-04-01T23:16:24.497Z,9.46
2023-04-01T23:21:30.182Z,9.46
2023-04-01T23:26:48.800Z,9.07
2023-04-01T23:32:02.628Z,7.14
2023-04-01T23:37:12.476Z,5.75
2023-04-01T23:42:32.631Z,5.98
2023-04-01T23:47:39.144Z,7.26
2023-04-01T23:52:47.304Z,7.87
2023-04-01T23:58:05.911Z,8.23
